Time;durP1;ratioP1;P1;durP2;ratioP2;P2;SDS_P1;SDS_P2;PMS_P1;PMS_P2;Temp;Humidity;BMP_temperature;BMP_pressure;BME280_temperature;BME280_humidity;BME280_pressure;Samples;Min_cycle;Max_cycle;Signal;HPM_P1;HPM_P2
2023/11/06 00:01:03;;;;;;;1.42;0.93;;;;;;;;;;6247533;23;20004;-95
2023/11/06 00:03:35;;;;;;;2.17;1.55;;;;;;;;;;6233387;23;20050;-94
2023/11/06 00:06:19;;;;;;;2.20;1.10;;;;;;;;;;6213196;23;20012;-94
2023/11/06 00:09:18;;;;;;;2.25;1.50;;;;;;;;;;6223062;23;20030;-95
2023/11/06 00:12:11;;;;;;;1.48;0.80;;;;;;;;;;6221275;23;20448;-95
2023/11/06 00:14:55;;;;;;;1.65;1.20;;;;;;;;;;6224657;22;20008;-95
2023/11/06 00:17:22;;;;;;;2.85;0.70;;;;;;;;;;6219135;23;20022;-94
2023/11/06 00:19:49;;;;;;;0.93;0.60;;;;;;;;;;6213225;23;20004;-94
2023/11/06 00:22:21;;;;;;;1.95;0.82;;;;;;;;;;6220584;23;20016;-94
2023/11/06 00:24:57;;;;;;;;;;;;;;;;;;;;;
2023/11/06 00:27:25;;;;;;;1.88;0.75;;;;;;;;;;6248087;23;20102;-95
2023/11/06 00:29:51;;;;;;;2.13;0.80;;;;;;;;;;6154333;23;20005;-95
2023/11/06 00:32:56;;;;;;;;;;;;;;;;;;;;;
2023/11/06 00:35:25;;;;;;;1.42;0.73;;;;;;;;;;6124269;23;20065;-95
2023/11/06 00:37:58;;;;;;;1.45;0.57;;;;;;;;;;6101225;23;20555;-95
2023/11/06 00:40:30;;;;;;;4.03;0.80;;;;;;;;;;6102054;23;20089;-95
2023/11/06 00:42:57;;;;;;;1.20;0.80;;;;;;;;;;6101147;23;20501;-94
2023/11/06 00:45:26;;;;;;;2.00;1.17;;;;;;;;;;6101505;23;20010;-96
2023/11/06 00:47:55;;;;;;;2.08;0.52;;;;;;;;;;6101788;23;20006;-96
2023/11/06 00:50:27;;;;;;;1.00;0.55;;;;;;;;;;6105860;23;20006;-95
2023/11/06 00:52:58;;;;;;;1.35;1.23;;;;;;;;;;6148415;23;20026;-95
2023/11/06 00:55:30;;;;;;;2.58;1.60;;;;;;;;;;6134322;23;20085;-95
2023/11/06 00:57:59;;;;;;;2.58;2.08;;;;;;;;;;6130965;23;20013;-94
2023/11/06 01:00:52;;;;;;;4.13;1.13;;;;;;;;;;6150143;23;20009;-94
2023/11/06 01:03:38;;;;;;;;;;;;;;;;;;;;;
2023/11/06 01:06:13;;;;;;;2.35;1.13;;;;;;;;;;6279462;22;20051;-96
2023/11/06 01:08:42;;;;;;;2.42;1.42;;;;;;;;;;6272477;22;20023;-96
2023/11/06 01:11:18;;;;;;;1.92;1.08;;;;;;;;;;6251911;22;20053;-93
2023/11/06 01:13:54;;;;;;;1.60;1.17;;;;;;;;;;6277321;22;20003;-96
2023/11/06 01:16:35;;;;;;;3.15;1.20;;;;;;;;;;6276925;22;20008;-94
2023/11/06 01:19:07;;;;;;;2.00;1.23;;;;;;;;;;6277386;22;20032;-95
2023/11/06 01:21:57;;;;;;;0.93;0.70;;;;;;;;;;6277570;22;20332;-94
2023/11/06 01:24:23;;;;;;;1.98;0.60;;;;;;;;;;6277137;22;20368;-94
2023/11/06 01:33:15;;;;;;;1.70;0.77;;;;;;;;;;6197195;23;20016;-96
2023/11/06 01:35:53;;;;;;;1.27;0.65;;;;;;;;;;6187761;23;20024;-96
2023/11/06 01:38:29;;;;;;;2.17;1.85;;;;;;;;;;6285338;22;20082;-96
2023/11/06 01:40:57;;;;;;;1.88;0.93;;;;;;;;;;6310843;22;20057;-96
2023/11/06 01:44:07;;;;;;;1.40;1.23;;;;;;;;;;6311929;22;20010;-96
2023/11/06 01:46:38;;;;;;;2.55;0.75;;;;;;;;;;6163754;23;20009;-95
2023/11/06 01:49:07;;;;;;;3.70;1.00;;;;;;;;;;6214521;22;20010;-96
2023/11/06 01:51:51;;;;;;;;;;;;;;;;;;;;;
2023/11/06 01:54:20;;;;;;;1.55;0.65;;;;;;;;;;6312402;22;20078;-96
2023/11/06 01:57:13;;;;;;;1.40;0.52;;;;;;;;;;6311029;22;20031;-96
2023/11/06 01:59:46;;;;;;;1.35;0.88;;;;;;;;;;6285192;22;20010;-95
2023/11/06 02:02:17;;;;;;;0.77;0.57;;;;;;;;;;6308475;22;20591;-96
2023/11/06 02:04:53;;;;;;;1.33;0.88;;;;;;;;;;6310256;22;20430;-95
2023/11/06 02:07:19;;;;;;;1.67;1.20;;;;;;;;;;6311913;22;20007;-96
2023/11/06 02:10:08;;;;;;;1.42;0.57;;;;;;;;;;6310066;22;20458;-96
2023/11/06 02:12:50;;;;;;;4.90;0.60;;;;;;;;;;6310937;22;19995;-96
2023/11/06 02:15:20;;;;;;;3.22;0.70;;;;;;;;;;6314449;22;20004;-95
2023/11/06 02:17:46;;;;;;;2.05;0.80;;;;;;;;;;6306161;22;20015;-95
2023/11/06 02:20:41;;;;;;;2.40;1.20;;;;;;;;;;6310237;22;19999;-96
2023/11/06 02:23:18;;;;;;;2.67;0.93;;;;;;;;;;6326843;22;20018;-95
2023/11/06 02:29:00;;;;;;;0.85;0.63;;;;;;;;;;6263664;22;20485;-94
2023/11/06 02:31:32;;;;;;;1.25;0.77;;;;;;;;;;6310518;22;20007;-96
2023/11/06 02:34:01;;;;;;;1.20;1.05;;;;;;;;;;6310337;22;20057;-95
2023/11/06 02:36:30;;;;;;;1.67;0.90;;;;;;;;;;6310254;22;20078;-95
2023/11/06 02:38:59;;;;;;;2.30;0.98;;;;;;;;;;6309271;22;20007;-95
2023/11/06 02:41:26;;;;;;;1.75;0.60;;;;;;;;;;6309991;22;20003;-96
2023/11/06 02:43:55;;;;;;;3.03;1.13;;;;;;;;;;6310292;22;20007;-95
2023/11/06 02:46:21;;;;;;;3.10;0.95;;;;;;;;;;6309138;22;20003;-96
2023/11/06 02:48:58;;;;;;;1.92;0.60;;;;;;;;;;6309624;22;20007;-95
2023/11/06 02:51:24;;;;;;;1.63;0.80;;;;;;;;;;6309725;22;20034;-96
2023/11/06 02:56:37;;;;;;;2.72;0.80;;;;;;;;;;6310562;22;20016;-95
2023/11/06 02:59:07;;;;;;;1.35;0.40;;;;;;;;;;6314316;22;20011;-96
2023/11/06 03:01:57;;;;;;;1.00;0.40;;;;;;;;;;6323576;22;20007;-95
2023/11/06 03:04:24;;;;;;;2.92;0.68;;;;;;;;;;6269303;22;20007;-94
2023/11/06 03:14:59;;;;;;;2.65;0.70;;;;;;;;;;6320045;22;20062;-96
2023/11/06 03:17:25;;;;;;;4.88;0.70;;;;;;;;;;6309578;22;20015;-96
2023/11/06 03:19:52;;;;;;;4.47;1.00;;;;;;;;;;6308706;22;20392;-95
2023/11/06 03:22:22;;;;;;;4.05;0.70;;;;;;;;;;6308652;22;20007;-96
2023/11/06 03:24:49;;;;;;;1.77;0.70;;;;;;;;;;6306776;22;20368;-95
2023/11/06 03:27:21;;;;;;;4.47;0.95;;;;;;;;;;6328609;22;19995;-94
2023/11/06 03:30:13;;;;;;;2.40;0.70;;;;;;;;;;6322380;22;20003;-95
2023/11/06 03:32:50;;;;;;;;;;;;;;;;;;;;;
2023/11/06 03:35:16;;;;;;;3.13;0.90;;;;;;;;;;6185240;23;20085;-95
2023/11/06 03:37:48;;;;;;;5.13;1.90;;;;;;;;;;6159235;23;20017;-94
2023/11/06 03:40:17;;;;;;;6.07;2.17;;;;;;;;;;6185479;23;20025;-95
2023/11/06 03:42:46;;;;;;;3.13;0.90;;;;;;;;;;6185918;23;20009;-96
2023/11/06 03:45:27;;;;;;;2.08;0.68;;;;;;;;;;6204789;23;19993;-96
2023/11/06 03:47:54;;;;;;;4.93;1.02;;;;;;;;;;6185597;23;20009;-95
2023/11/06 03:50:23;;;;;;;3.63;0.95;;;;;;;;;;6185532;23;20008;-94
2023/11/06 03:52:50;;;;;;;2.33;0.43;;;;;;;;;;6252332;22;20053;-96
2023/11/06 03:55:47;;;;;;;;;;;;;;;;;;;;;
2023/11/06 03:58:11;;;;;;;4.70;0.70;;;;;;;;;;6306164;22;20019;-95
2023/11/06 04:00:41;;;;;;;0.80;0.45;;;;;;;;;;6307999;22;20090;-95
2023/11/06 04:03:14;;;;;;;1.50;0.52;;;;;;;;;;6308048;22;20007;-96
2023/11/06 04:05:40;;;;;;;2.15;0.80;;;;;;;;;;6307766;22;19999;-94
2023/11/06 04:08:17;;;;;;;;;;;;;;;;;;;;;
2023/11/06 04:10:43;;;;;;;2.20;1.02;;;;;;;;;;6310912;22;20078;-95
2023/11/06 04:13:20;;;;;;;3.00;0.60;;;;;;;;;;6310228;22;20010;-96
2023/11/06 04:15:49;;;;;;;2.17;0.80;;;;;;;;;;6282602;22;20094;-95
2023/11/06 04:18:18;;;;;;;5.07;1.55;;;;;;;;;;6308243;22;20062;-95
2023/11/06 04:20:47;;;;;;;3.17;1.02;;;;;;;;;;6315053;22;19992;-95
2023/11/06 04:23:13;;;;;;;7.05;1.10;;;;;;;;;;6309223;22;20003;-96
2023/11/06 04:25:40;;;;;;;4.97;1.00;;;;;;;;;;6308571;22;19999;-95
2023/11/06 04:28:13;;;;;;;2.30;0.70;;;;;;;;;;6309146;22;20042;-95
2023/11/06 04:30:46;;;;;;;3.47;1.00;;;;;;;;;;6308376;22;20416;-95
2023/11/06 04:33:12;;;;;;;4.45;0.90;;;;;;;;;;6309557;22;20059;-95
2023/11/06 04:35:42;;;;;;;4.82;0.90;;;;;;;;;;6308498;22;20003;-96
2023/11/06 04:38:11;;;;;;;1.63;0.70;;;;;;;;;;6308429;22;20023;-96
2023/11/06 04:40:40;;;;;;;3.47;0.60;;;;;;;;;;6312499;22;19999;-94
2023/11/06 04:43:33;;;;;;;3.35;0.70;;;;;;;;;;6330707;22;20003;-94
2023/11/06 04:46:05;;;;;;;4.72;0.77;;;;;;;;;;6310317;22;19999;-96
2023/11/06 04:48:37;;;;;;;1.45;0.50;;;;;;;;;;6308160;22;20007;-94
2023/11/06 04:51:07;;;;;;;1.98;0.60;;;;;;;;;;6308470;22;20010;-94
2023/11/06 04:53:37;;;;;;;2.42;0.70;;;;;;;;;;6330193;22;20003;-96
2023/11/06 04:56:10;;;;;;;1.38;0.50;;;;;;;;;;6305734;22;20007;-95
2023/11/06 04:58:42;;;;;;;2.30;0.70;;;;;;;;;;6284312;22;20317;-94
2023/11/06 05:01:08;;;;;;;3.90;0.85;;;;;;;;;;6298364;22;20003;-96
2023/11/06 05:03:39;;;;;;;2.60;0.95;;;;;;;;;;6282478;22;20013;-94
2023/11/06 05:06:08;;;;;;;3.95;0.90;;;;;;;;;;6280689;22;20328;-94
2023/11/06 05:08:38;;;;;;;3.10;0.93;;;;;;;;;;6281291;22;20428;-94
2023/11/06 05:11:07;;;;;;;4.70;0.70;;;;;;;;;;6281394;22;20011;-96
2023/11/06 05:13:39;;;;;;;2.38;0.70;;;;;;;;;;6281346;22;19999;-94
2023/11/06 05:16:08;;;;;;;1.92;0.60;;;;;;;;;;6281394;22;20508;-94
2023/11/06 05:18:37;;;;;;;1.65;0.68;;;;;;;;;;6282607;22;20026;-94
2023/11/06 05:21:10;;;;;;;1.52;0.68;;;;;;;;;;6281860;22;19996;-94
2023/11/06 05:23:36;;;;;;;2.67;0.82;;;;;;;;;;6282343;22;20004;-94
2023/11/06 05:26:29;;;;;;;4.47;0.93;;;;;;;;;;6284036;22;20010;-96
2023/11/06 05:29:07;;;;;;;2.03;0.63;;;;;;;;;;6274136;22;20006;-95
2023/11/06 05:31:49;;;;;;;1.23;0.60;;;;;;;;;;6283246;22;20340;-93
2023/11/06 05:34:19;;;;;;;3.17;0.82;;;;;;;;;;6282106;22;20086;-95
2023/11/06 05:42:30;;;;;;;3.58;0.70;;;;;;;;;;6217244;23;20021;-94
2023/11/06 05:48:20;;;;;;;2.15;0.77;;;;;;;;;;6310458;22;20014;-96
2023/11/06 05:56:55;;;;;;;2.90;0.65;;;;;;;;;;6261746;22;20023;-95
2023/11/06 05:59:47;;;;;;;6.32;0.73;;;;;;;;;;6316301;22;20052;-94
2023/11/06 06:05:30;;;;;;;4.13;0.63;;;;;;;;;;6154968;23;20395;-95
2023/11/06 06:14:32;;;;;;;1.98;0.80;;;;;;;;;;6154365;23;20016;-92
2023/11/06 06:23:30;;;;;;;3.08;1.63;;;;;;;;;;6247980;23;20380;-95
2023/11/06 06:42:54;;;;;;;3.80;2.42;;;;;;;;;;6288848;22;20011;-95
2023/11/06 06:45:53;;;;;;;;;;;;;;;;;;;;;
2023/11/06 06:54:20;;;;;;;4.78;1.58;;;;;;;;;;6279231;22;20014;-91
2023/11/06 16:28:51;;;;;;;6.15;2.33;;;;;;;;;;6226988;22;20031;-93
2023/11/06 16:35:07;;;;;;;10.18;3.92;;;;;;;;;;6287569;22;20340;-94
2023/11/06 16:43:35;;;;;;;8.68;3.03;;;;;;;;;;6235495;22;20030;-94
2023/11/06 16:46:08;;;;;;;6.97;3.22;;;;;;;;;;6335688;22;20034;-96
2023/11/06 16:56:49;;;;;;;7.97;4.47;;;;;;;;;;6237350;22;20098;-93
2023/11/06 17:04:27;;;;;;;9.43;4.93;;;;;;;;;;6315072;22;20023;-94
2023/11/06 17:07:21;;;;;;;9.27;4.90;;;;;;;;;;6313621;22;20476;-95
2023/11/06 17:10:21;;;;;;;10.07;5.05;;;;;;;;;;6317380;22;20383;-93
2023/11/06 17:13:04;;;;;;;10.85;5.22;;;;;;;;;;6316392;22;20003;-95
2023/11/06 17:15:34;;;;;;;10.55;4.97;;;;;;;;;;6314876;22;20003;-96
2023/11/06 17:18:09;;;;;;;17.88;6.07;;;;;;;;;;6312144;22;20027;-93
2023/11/06 17:20:43;;;;;;;9.95;5.47;;;;;;;;;;6314007;22;20436;-93
2023/11/06 17:53:29;;;;;;;11.73;4.10;;;;;;;;;;6251462;22;20132;-95
2023/11/06 18:33:51;;;;;;;;;;;;;;;;;;;;;
2023/11/06 18:36:32;;;;;;;23.48;10.73;;;;;;;;;;6322385;22;20038;-95
2023/11/06 18:38:58;;;;;;;18.95;10.90;;;;;;;;;;6264317;22;20027;-92
2023/11/06 18:42:04;;;;;;;13.57;8.10;;;;;;;;;;6335203;22;20003;-94
2023/11/06 18:44:51;;;;;;;13.80;8.00;;;;;;;;;;6225423;23;20058;-95
2023/11/06 19:15:26;;;;;;;18.45;11.55;;;;;;;;;;6317842;22;20019;-95
2023/11/06 19:18:12;;;;;;;23.10;13.52;;;;;;;;;;6291343;22;20112;-94
2023/11/06 19:20:54;;;;;;;24.60;13.85;;;;;;;;;;6223779;23;20009;-96
2023/11/06 19:23:45;;;;;;;23.60;14.30;;;;;;;;;;6200733;23;20043;-96
2023/11/06 19:26:48;;;;;;;24.30;14.25;;;;;;;;;;6202474;23;20012;-94
2023/11/06 19:29:52;;;;;;;19.33;10.63;;;;;;;;;;6154131;23;20016;-95
2023/11/06 19:36:02;;;;;;;25.83;14.55;;;;;;;;;;6174389;23;20009;-95
2023/11/06 19:47:44;;;;;;;22.50;13.55;;;;;;;;;;6134335;23;20057;-95
2023/11/06 19:53:23;;;;;;;21.35;11.98;;;;;;;;;;6132268;23;20005;-95
2023/11/06 19:55:54;;;;;;;19.80;11.23;;;;;;;;;;6163226;23;20012;-94
2023/11/06 20:05:22;;;;;;;;;;;;;;;;;;;;;
2023/11/06 20:18:03;;;;;;;37.25;21.02;;;;;;;;;;6226652;23;20027;-94
2023/11/06 20:26:46;;;;;;;26.20;14.57;;;;;;;;;;6282433;22;20038;-95
2023/11/06 20:44:56;;;;;;;17.60;8.30;;;;;;;;;;6107798;23;20112;-94
2023/11/06 20:58:24;;;;;;;17.90;8.05;;;;;;;;;;6328754;22;20110;-93
2023/11/06 21:10:17;;;;;;;14.70;8.43;;;;;;;;;;6253231;23;20074;-95
2023/11/06 21:13:04;;;;;;;21.45;11.18;;;;;;;;;;6231646;23;20007;-96
2023/11/06 21:15:33;;;;;;;18.42;10.27;;;;;;;;;;6231649;23;20004;-95
2023/11/06 21:20:54;;;;;;;26.65;13.77;;;;;;;;;;6256946;23;20460;-96
2023/11/06 21:23:39;;;;;;;39.08;19.52;;;;;;;;;;6231433;23;20050;-95
2023/11/06 21:26:35;;;;;;;49.30;24.50;;;;;;;;;;6168324;23;20075;-96
2023/11/06 21:29:04;;;;;;;44.58;19.02;;;;;;;;;;6077516;23;20075;-96
2023/11/06 21:34:59;;;;;;;27.10;12.27;;;;;;;;;;6084430;23;20014;-96
2023/11/06 21:40:30;;;;;;;36.72;17.58;;;;;;;;;;6020141;23;20032;-96
2023/11/06 21:49:14;;;;;;;19.55;9.38;;;;;;;;;;6021613;23;20063;-94
2023/11/06 21:51:47;;;;;;;18.70;9.55;;;;;;;;;;6018989;23;20008;-93
2023/11/06 21:54:45;;;;;;;;;;;;;;;;;;;;;
2023/11/06 21:57:20;;;;;;;;;;;;;;;;;;6074898;23;20033;-95
2023/11/06 22:02:53;;;;;;;19.23;9.52;;;;;;;;;;6237934;22;20163;-94
2023/11/06 22:05:23;;;;;;;21.38;11.57;;;;;;;;;;6305858;22;19996;-94
2023/11/06 22:07:57;;;;;;;26.08;13.68;;;;;;;;;;6287188;22;20016;-95
2023/11/06 22:10:30;;;;;;;21.48;10.40;;;;;;;;;;6285498;22;20437;-95
2023/11/06 22:13:17;;;;;;;12.77;7.15;;;;;;;;;;6287088;22;20033;-95
2023/11/06 22:15:46;;;;;;;19.58;9.55;;;;;;;;;;6287376;22;20034;-96
2023/11/06 22:18:17;;;;;;;22.17;12.02;;;;;;;;;;6285786;22;20004;-95
2023/11/06 22:21:03;;;;;;;20.60;10.88;;;;;;;;;;6287754;22;20369;-96
2023/11/06 22:26:45;;;;;;;17.77;9.93;;;;;;;;;;6287894;22;20006;-94
2023/11/06 22:35:46;;;;;;;14.45;8.80;;;;;;;;;;6224260;23;20035;-96
2023/11/06 22:38:18;;;;;;;13.85;8.60;;;;;;;;;;6133257;23;20064;-96
2023/11/06 22:40:47;;;;;;;15.75;9.43;;;;;;;;;;6131506;23;20013;-95
2023/11/06 22:43:25;;;;;;;12.90;8.07;;;;;;;;;;6188194;23;20024;-96
2023/11/06 22:46:00;;;;;;;15.88;7.85;;;;;;;;;;6232202;22;20008;-95
2023/11/06 22:48:26;;;;;;;16.10;8.40;;;;;;;;;;6288885;22;20070;-96
2023/11/06 22:50:56;;;;;;;17.35;9.75;;;;;;;;;;6284569;22;20004;-95
2023/11/06 22:53:22;;;;;;;17.83;9.88;;;;;;;;;;6286912;22;20063;-95
2023/11/06 22:55:54;;;;;;;21.58;10.20;;;;;;;;;;6300493;22;20004;-96
2023/11/06 22:58:22;;;;;;;15.20;8.70;;;;;;;;;;6280116;22;20082;-95
2023/11/06 23:04:07;;;;;;;16.42;6.95;;;;;;;;;;6278714;22;20023;-94
2023/11/06 23:12:51;;;;;;;15.48;7.82;;;;;;;;;;6249034;23;20045;-95
2023/11/06 23:15:26;;;;;;;16.85;7.20;;;;;;;;;;6248815;23;20000;-95
2023/11/06 23:17:53;;;;;;;12.95;6.65;;;;;;;;;;6246378;23;20024;-95
2023/11/06 23:26:14;;;;;;;12.73;6.80;;;;;;;;;;6251244;23;20007;-96
2023/11/06 23:28:45;;;;;;;16.20;7.75;;;;;;;;;;6248948;23;20012;-95
2023/11/06 23:31:17;;;;;;;16.52;8.10;;;;;;;;;;6247410;23;20477;-95
2023/11/06 23:33:47;;;;;;;19.48;9.88;;;;;;;;;;6251271;23;20004;-96
2023/11/06 23:36:18;;;;;;;22.13;9.98;;;;;;;;;;6251503;23;20011;-94
2023/11/06 23:41:44;;;;;;;14.48;6.90;;;;;;;;;;6251371;23;20062;-95
2023/11/06 23:44:19;;;;;;;14.65;7.65;;;;;;;;;;6263775;22;20015;-95
2023/11/06 23:46:54;;;;;;;15.40;7.82;;;;;;;;;;6217194;22;20023;-95
2023/11/06 23:49:30;;;;;;;14.55;7.60;;;;;;;;;;6222229;23;20022;-95
2023/11/06 23:51:56;;;;;;;16.65;8.20;;;;;;;;;;6222089;23;20000;-95
2023/11/06 23:54:22;;;;;;;22.00;8.57;;;;;;;;;;6223773;23;20011;-96
2023/11/06 23:56:51;;;;;;;12.02;6.03;;;;;;;;;;6222957;23;20000;-94
2023/11/06 23:59:19;;;;;;;15.18;7.20;;;;;;;;;;6222842;23;20456;-95
